Time;durP1;ratioP1;P1;durP2;ratioP2;P2;SDS_P1;SDS_P2;PMS_P1;PMS_P2;Temp;Humidity;BMP_temperature;BMP_pressure;BME280_temperature;BME280_humidity;BME280_pressure;Samples;Min_cycle;Max_cycle;Signal;HPM_P1;HPM_P2
2021/12/26 00:01:37;;;;;;;1.75;1.65;;;;;;;-143.85;100.00;70650.75;5095723;28;20079;-83
2021/12/26 00:04:05;;;;;;;0.60;0.60;;;;;;;-143.85;100.00;70650.75;5096664;28;20086;-81
2021/12/26 00:06:31;;;;;;;0.30;0.30;;;;;;;-143.85;100.00;70650.75;5095647;28;20054;-83
2021/12/26 00:08:59;;;;;;;1.45;1.33;;;;;;;-143.85;100.00;70650.75;5086393;28;20481;-82
2021/12/26 00:11:25;;;;;;;1.45;1.35;;;;;;;-143.85;100.00;70650.75;5075805;28;20032;-81
2021/12/26 00:13:53;;;;;;;2.15;2.05;;;;;;;-143.85;100.00;70650.75;5083213;28;20060;-80
2021/12/26 00:16:20;;;;;;;0.95;0.95;;;;;;;-143.85;100.00;70650.75;5075101;28;20073;-81
2021/12/26 00:18:46;;;;;;;1.27;1.27;;;;;;;-143.85;100.00;70650.75;5075191;28;20039;-81
2021/12/26 00:21:15;;;;;;;0.30;0.30;;;;;;;-143.85;100.00;70650.75;5091526;28;20025;-83
2021/12/26 00:23:41;;;;;;;0.93;0.93;;;;;;;-143.85;100.00;70650.75;5074867;28;20040;-82
2021/12/26 00:26:07;;;;;;;3.17;2.72;;;;;;;-143.85;100.00;70650.75;5074634;28;20028;-81
2021/12/26 00:28:32;;;;;;;0.90;0.90;;;;;;;-143.85;100.00;70650.75;5074596;28;20024;-80
2021/12/26 00:30:58;;;;;;;1.58;1.48;;;;;;;-143.85;100.00;70650.75;5074794;28;20039;-82
2021/12/26 00:33:24;;;;;;;0.80;0.80;;;;;;;-143.85;100.00;70650.75;5084438;28;20043;-84
2021/12/26 00:35:50;;;;;;;0.75;0.75;;;;;;;-143.85;100.00;70650.75;5077150;28;20041;-83
2021/12/26 00:38:16;;;;;;;1.17;0.77;;;;;;;-143.85;100.00;70650.75;5074477;28;20024;-80
2021/12/26 00:40:42;;;;;;;1.20;1.20;;;;;;;-143.85;100.00;70650.75;5074542;28;20450;-82
2021/12/26 00:43:08;;;;;;;0.30;0.30;;;;;;;-143.85;100.00;70650.75;5074685;28;20046;-81
2021/12/26 00:45:34;;;;;;;0.85;0.85;;;;;;;-143.85;100.00;70650.75;5074348;28;20028;-80
2021/12/26 00:48:00;;;;;;;2.60;2.40;;;;;;;-143.85;100.00;70650.75;5074679;28;20025;-81
2021/12/26 00:50:31;;;;;;;1.05;1.05;;;;;;;-143.85;100.00;70650.75;5074388;28;20082;-82
2021/12/26 00:52:57;;;;;;;0.77;0.77;;;;;;;-143.85;100.00;70650.75;5091278;28;20031;-83
2021/12/26 00:55:23;;;;;;;2.10;1.75;;;;;;;-143.85;100.00;70650.75;5074203;28;20032;-83
2021/12/26 00:57:49;;;;;;;0.35;0.35;;;;;;;-143.85;100.00;70650.75;5074040;28;20016;-81
2021/12/26 01:00:22;;;;;;;0.50;0.50;;;;;;;-143.85;100.00;70650.75;5073812;28;20477;-82
2021/12/26 01:02:49;;;;;;;1.40;1.40;;;;;;;-143.85;100.00;70650.75;5074634;28;20146;-84
2021/12/26 01:05:15;;;;;;;1.35;1.23;;;;;;;-143.85;100.00;70650.75;5074286;28;20028;-82
2021/12/26 01:10:18;;;;;;;0.85;0.85;;;;;;;-143.85;100.00;70650.75;5075358;28;20040;-82
2021/12/26 01:12:45;;;;;;;0.50;0.50;;;;;;;-143.85;100.00;70650.75;5074013;28;20024;-82
2021/12/26 01:15:11;;;;;;;0.43;0.43;;;;;;;-143.85;100.00;70650.75;5074317;28;20029;-83
2021/12/26 01:17:41;;;;;;;0.43;0.43;;;;;;;-143.85;100.00;70650.75;5074102;28;20029;-82
2021/12/26 01:20:25;;;;;;;0.20;0.20;;;;;;;-143.85;100.00;70650.75;5073787;28;20556;-81
2021/12/26 01:22:50;;;;;;;0.50;0.50;;;;;;;-143.85;100.00;70650.75;5059316;28;20036;-81
2021/12/26 01:25:16;;;;;;;1.17;1.08;;;;;;;-143.85;100.00;70650.75;5073749;28;20029;-81
2021/12/26 01:27:41;;;;;;;1.35;1.13;;;;;;;-143.85;100.00;70650.75;5090686;28;20056;-82
2021/12/26 01:30:08;;;;;;;1.25;1.17;;;;;;;-143.85;100.00;70650.75;5090490;28;20035;-81
2021/12/26 01:32:33;;;;;;;0.50;0.50;;;;;;;-143.85;100.00;70650.75;5090903;28;20039;-81
2021/12/26 01:34:59;;;;;;;0.73;0.73;;;;;;;-143.85;100.00;70650.75;5085411;28;20473;-81
2021/12/26 01:37:25;;;;;;;0.80;0.60;;;;;;;-143.85;100.00;70650.75;5070482;28;20065;-84
2021/12/26 01:39:51;;;;;;;6.00;0.73;;;;;;;-143.85;100.00;70650.75;5073204;28;20484;-81
2021/12/26 01:42:16;;;;;;;0.40;0.40;;;;;;;-143.85;100.00;70650.75;5072926;28;20114;-80
2021/12/26 01:44:42;;;;;;;0.55;0.55;;;;;;;-143.85;100.00;70650.75;5073075;28;20124;-81
2021/12/26 01:47:08;;;;;;;0.55;0.55;;;;;;;-143.85;100.00;70650.75;5073809;28;20060;-83
2021/12/26 01:49:34;;;;;;;1.65;1.10;;;;;;;-143.85;100.00;70650.75;5061986;28;20115;-84
2021/12/26 01:52:02;;;;;;;1.35;1.35;;;;;;;-143.85;100.00;70650.75;5069993;28;20029;-80
2021/12/26 01:54:38;;;;;;;0.40;0.40;;;;;;;-143.85;100.00;70650.75;5069825;28;20028;-81
2021/12/26 01:57:09;;;;;;;0.45;0.45;;;;;;;-143.85;100.00;70650.75;5053326;28;20032;-80
2021/12/26 01:59:35;;;;;;;2.65;0.60;;;;;;;-143.85;100.00;70650.75;5054483;28;20025;-81
2021/12/26 02:02:02;;;;;;;0.50;0.50;;;;;;;-143.85;100.00;70650.75;5056382;28;20086;-82
2021/12/26 02:04:29;;;;;;;3.88;1.08;;;;;;;-143.85;100.00;70650.75;5056335;28;20032;-80
2021/12/26 02:06:59;;;;;;;0.57;0.57;;;;;;;-143.85;100.00;70650.75;5055883;28;20024;-82
2021/12/26 02:09:25;;;;;;;0.75;0.75;;;;;;;-143.85;100.00;70650.75;5056246;28;20032;-82
2021/12/26 02:11:52;;;;;;;0.80;0.80;;;;;;;-143.85;100.00;70650.75;5085585;28;20020;-82
2021/12/26 02:14:18;;;;;;;0.43;0.43;;;;;;;-143.85;100.00;70650.75;5093261;28;20039;-83
2021/12/26 02:16:44;;;;;;;1.00;1.00;;;;;;;-143.85;100.00;70650.75;5093364;28;20403;-82
2021/12/26 02:19:10;;;;;;;2.10;1.98;;;;;;;-143.85;100.00;70650.75;5093318;28;20119;-81
2021/12/26 02:24:26;;;;;;;0.40;0.40;;;;;;;-143.85;100.00;70650.75;5094627;28;20042;-82
2021/12/26 02:29:40;;;;;;;0.80;0.80;;;;;;;-143.85;100.00;70650.75;5094075;28;20038;-83
2021/12/26 02:32:06;;;;;;;0.45;0.45;;;;;;;-143.85;100.00;70650.75;5092793;28;20422;-83
2021/12/26 02:34:32;;;;;;;0.95;0.95;;;;;;;-143.85;100.00;70650.75;5062103;28;20036;-81
2021/12/26 02:36:58;;;;;;;2.10;2.03;;;;;;;-143.85;100.00;70650.75;5068494;28;20016;-82
2021/12/26 02:39:23;;;;;;;2.72;2.60;;;;;;;-143.85;100.00;70650.75;5075641;28;20024;-81
2021/12/26 02:41:49;;;;;;;0.77;0.77;;;;;;;-143.85;100.00;70650.75;5076182;28;20039;-82
2021/12/26 02:44:14;;;;;;;0.73;0.73;;;;;;;-143.85;100.00;70650.75;5089882;28;20053;-83
2021/12/26 02:46:42;;;;;;;1.77;1.67;;;;;;;-143.85;100.00;70650.75;5095974;28;20495;-82
2021/12/26 02:49:08;;;;;;;;;;;;;;;-143.85;100.00;70650.75;5096268;28;20039;-82
2021/12/26 02:51:34;;;;;;;0.93;0.93;;;;;;;-143.85;100.00;70650.75;5095696;28;19908;-82
2021/12/26 02:53:59;;;;;;;0.30;0.30;;;;;;;-143.85;100.00;70650.75;5095853;28;20027;-82
2021/12/26 02:56:25;;;;;;;1.58;1.48;;;;;;;-143.85;100.00;70650.75;5055718;28;20116;-83
2021/12/26 02:58:51;;;;;;;0.52;0.52;;;;;;;-143.85;100.00;70650.75;5078899;28;20396;-83
2021/12/26 03:01:20;;;;;;;1.05;1.05;;;;;;;-143.85;100.00;70650.75;5095352;28;20498;-83
2021/12/26 03:03:47;;;;;;;1.27;1.27;;;;;;;-143.85;100.00;70650.75;5095686;28;20015;-84
2021/12/26 03:06:20;;;;;;;6.13;2.92;;;;;;;-143.85;100.00;70650.75;5095759;28;20028;-83
2021/12/26 03:08:47;;;;;;;0.55;0.55;;;;;;;-143.85;100.00;70650.75;5095526;28;20038;-82
2021/12/26 03:11:13;;;;;;;2.45;1.23;;;;;;;-143.85;100.00;70650.75;5076267;28;20032;-81
2021/12/26 03:13:38;;;;;;;1.88;1.65;;;;;;;-143.85;100.00;70650.75;5074944;28;20035;-81
2021/12/26 03:16:04;;;;;;;0.30;0.30;;;;;;;-143.85;100.00;70650.75;5075375;28;20023;-82
2021/12/26 03:18:30;;;;;;;0.40;0.40;;;;;;;-143.85;100.00;70650.75;5074507;28;20054;-84
2021/12/26 03:20:55;;;;;;;1.65;0.93;;;;;;;-143.85;100.00;70650.75;5092050;28;20493;-86
2021/12/26 03:23:24;;;;;;;0.40;0.40;;;;;;;-143.85;100.00;70650.75;5075684;28;20074;-82
2021/12/26 03:25:50;;;;;;;1.20;1.20;;;;;;;-143.85;100.00;70650.75;5057772;28;20024;-83
2021/12/26 03:28:17;;;;;;;2.10;2.00;;;;;;;-143.85;100.00;70650.75;5054917;28;20424;-83
2021/12/26 03:30:43;;;;;;;1.42;1.35;;;;;;;-143.85;100.00;70650.75;5071431;28;20031;-82
2021/12/26 03:33:10;;;;;;;0.70;0.70;;;;;;;-143.85;100.00;70650.75;5055084;28;20028;-82
2021/12/26 03:35:36;;;;;;;0.30;0.30;;;;;;;-143.85;100.00;70650.75;5055203;28;20032;-85
2021/12/26 03:38:04;;;;;;;1.38;1.27;;;;;;;-143.85;100.00;70650.75;5054304;28;20111;-81
2021/12/26 03:40:30;;;;;;;1.08;1.08;;;;;;;-143.85;100.00;70650.75;5054961;28;20075;-82
2021/12/26 03:42:55;;;;;;;0.55;0.55;;;;;;;-143.85;100.00;70650.75;5054606;28;20059;-81
2021/12/26 03:45:21;;;;;;;0.82;0.82;;;;;;;-143.85;100.00;70650.75;5054966;28;20056;-82
2021/12/26 03:47:49;;;;;;;1.48;1.35;;;;;;;-143.85;100.00;70650.75;5054862;28;20544;-82
2021/12/26 03:50:15;;;;;;;;;;;;;;;-143.85;100.00;70650.75;5055211;28;20177;-81
2021/12/26 03:52:40;;;;;;;0.30;0.30;;;;;;;-143.85;100.00;70650.75;5054579;28;19909;-81
2021/12/26 03:55:06;;;;;;;1.27;1.17;;;;;;;-143.85;100.00;70650.75;5054607;28;20554;-81
2021/12/26 03:57:32;;;;;;;0.40;0.40;;;;;;;-143.85;100.00;70650.75;5054677;28;20025;-81
2021/12/26 03:59:57;;;;;;;1.23;0.60;;;;;;;-143.85;100.00;70650.75;5054354;28;20072;-82
2021/12/26 04:02:22;;;;;;;0.22;0.22;;;;;;;-143.85;100.00;70650.75;5071513;28;20496;-81
2021/12/26 04:04:48;;;;;;;0.35;0.35;;;;;;;-143.85;100.00;70650.75;5054828;28;20029;-86
2021/12/26 04:07:13;;;;;;;0.20;0.20;;;;;;;-143.85;100.00;70650.75;5075236;28;20060;-82
2021/12/26 04:09:39;;;;;;;1.08;1.08;;;;;;;-143.85;100.00;70650.75;5091578;28;20039;-82
2021/12/26 04:12:05;;;;;;;0.20;0.20;;;;;;;-143.85;100.00;70650.75;5074769;28;20055;-82
2021/12/26 04:14:31;;;;;;;1.33;1.27;;;;;;;-143.85;100.00;70650.75;5072424;28;20527;-81
2021/12/26 04:16:57;;;;;;;2.40;1.02;;;;;;;-143.85;100.00;70650.75;5054524;28;20116;-82
2021/12/26 04:19:22;;;;;;;0.65;0.65;;;;;;;-143.85;100.00;70650.75;5054466;28;20502;-81
2021/12/26 04:21:48;;;;;;;0.93;0.93;;;;;;;-143.85;100.00;70650.75;5054585;28;20174;-81
2021/12/26 04:24:14;;;;;;;0.60;0.60;;;;;;;-143.85;100.00;70650.75;5054745;28;20070;-83
2021/12/26 04:26:40;;;;;;;2.78;2.53;;;;;;;-143.85;100.00;70650.75;5054450;28;20024;-82
2021/12/26 04:29:07;;;;;;;0.70;0.70;;;;;;;-143.85;100.00;70650.75;5066079;28;20385;-83
2021/12/26 04:31:33;;;;;;;0.82;0.82;;;;;;;-143.85;100.00;70650.75;5078413;28;20027;-82
2021/12/26 04:33:58;;;;;;;1.10;1.10;;;;;;;-143.85;100.00;70650.75;5078261;28;20028;-83
2021/12/26 04:36:24;;;;;;;1.13;1.13;;;;;;;-143.85;100.00;70650.75;5095276;28;20101;-81
2021/12/26 04:38:50;;;;;;;2.40;2.20;;;;;;;-143.85;100.00;70650.75;5084123;28;20458;-82
2021/12/26 04:41:15;;;;;;;0.95;0.95;;;;;;;-143.85;100.00;70650.75;5058360;28;20067;-83
2021/12/26 04:43:41;;;;;;;0.40;0.40;;;;;;;-143.85;100.00;70650.75;5057896;28;20082;-82
2021/12/26 04:46:08;;;;;;;0.40;0.40;;;;;;;-143.85;100.00;70650.75;5058162;28;20556;-82
2021/12/26 04:48:35;;;;;;;0.93;0.93;;;;;;;-143.85;100.00;70650.75;5057956;28;20033;-82
2021/12/26 04:51:02;;;;;;;0.37;0.37;;;;;;;-143.85;100.00;70650.75;5072521;28;20027;-82
2021/12/26 04:53:27;;;;;;;1.13;1.13;;;;;;;-143.85;100.00;70650.75;5077763;28;20122;-82
2021/12/26 04:55:53;;;;;;;1.73;1.63;;;;;;;-143.85;100.00;70650.75;5077860;28;20059;-82
2021/12/26 04:58:18;;;;;;;0.60;0.60;;;;;;;-143.85;100.00;70650.75;5077578;28;20027;-81
2021/12/26 05:00:44;;;;;;;1.42;1.33;;;;;;;-143.85;100.00;70650.75;5078565;28;20052;-80
2021/12/26 05:03:10;;;;;;;1.75;1.45;;;;;;;-143.85;100.00;70650.75;5094346;28;20029;-81
2021/12/26 05:05:36;;;;;;;0.73;0.73;;;;;;;-143.85;100.00;70650.75;5094268;28;20030;-80
2021/12/26 05:08:02;;;;;;;0.50;0.50;;;;;;;-143.85;100.00;70650.75;5093230;28;20020;-81
2021/12/26 05:10:29;;;;;;;0.30;0.30;;;;;;;-143.85;100.00;70650.75;5077439;28;20115;-81
2021/12/26 05:12:56;;;;;;;0.85;0.85;;;;;;;-143.85;100.00;70650.75;5094310;28;20103;-81
2021/12/26 05:15:22;;;;;;;0.93;0.63;;;;;;;-143.85;100.00;70650.75;5077519;28;20028;-83
2021/12/26 05:17:50;;;;;;;0.20;0.20;;;;;;;-143.85;100.00;70650.75;5057148;28;20111;-80
2021/12/26 05:20:18;;;;;;;1.17;1.08;;;;;;;-143.85;100.00;70650.75;5058000;28;20449;-81
2021/12/26 05:22:44;;;;;;;1.55;1.55;;;;;;;-143.85;100.00;70650.75;5056916;28;20048;-81
2021/12/26 05:25:10;;;;;;;0.52;0.52;;;;;;;-143.85;100.00;70650.75;5056919;28;20031;-83
2021/12/26 05:27:36;;;;;;;1.20;1.20;;;;;;;-143.85;100.00;70650.75;5096015;28;20118;-82
2021/12/26 05:30:03;;;;;;;0.30;0.30;;;;;;;-143.85;100.00;70650.75;5082952;28;20488;-81
2021/12/26 05:32:29;;;;;;;1.40;1.30;;;;;;;-143.85;100.00;70650.75;5074176;28;20110;-81
2021/12/26 05:34:54;;;;;;;0.80;0.80;;;;;;;-143.85;100.00;70650.75;5057005;28;20039;-81
2021/12/26 05:37:20;;;;;;;0.70;0.70;;;;;;;-143.85;100.00;70650.75;5073698;28;20229;-83
2021/12/26 05:39:45;;;;;;;1.10;1.10;;;;;;;-143.85;100.00;70650.75;5076105;28;20020;-81
2021/12/26 05:42:15;;;;;;;6.70;4.10;;;;;;;-143.85;100.00;70650.75;5092573;28;20023;-81
2021/12/26 05:44:44;;;;;;;1.02;1.02;;;;;;;-143.85;100.00;70650.75;5097455;28;20027;-83
2021/12/26 05:47:10;;;;;;;0.90;0.90;;;;;;;-143.85;100.00;70650.75;5096933;28;20034;-81
2021/12/26 05:49:35;;;;;;;0.52;0.52;;;;;;;-143.85;100.00;70650.75;5077465;28;20400;-80
2021/12/26 05:52:01;;;;;;;1.40;0.65;;;;;;;-143.85;100.00;70650.75;5077055;28;20512;-80
2021/12/26 05:54:27;;;;;;;2.83;2.58;;;;;;;-143.85;100.00;70650.75;5093438;28;20399;-80
2021/12/26 05:56:52;;;;;;;3.50;2.13;;;;;;;-143.85;100.00;70650.75;5076438;28;20038;-84
2021/12/26 05:59:18;;;;;;;9.15;7.68;;;;;;;-143.85;100.00;70650.75;5076972;28;20024;-83
2021/12/26 06:01:43;;;;;;;3.13;2.92;;;;;;;-143.85;100.00;70650.75;5063490;28;20060;-80
2021/12/26 06:04:09;;;;;;;1.52;1.48;;;;;;;-143.85;100.00;70650.75;5056407;28;20033;-81
2021/12/26 06:06:34;;;;;;;4.35;3.08;;;;;;;-143.85;100.00;70650.75;5075759;28;20475;-80
2021/12/26 06:09:00;;;;;;;2.72;2.17;;;;;;;-143.85;100.00;70650.75;5077993;28;20044;-82
2021/12/26 06:11:25;;;;;;;1.85;1.77;;;;;;;-143.85;100.00;70650.75;5088721;28;20028;-83
2021/12/26 06:13:51;;;;;;;3.53;3.33;;;;;;;-143.85;100.00;70650.75;5096501;28;20031;-80
2021/12/26 06:16:16;;;;;;;2.63;2.42;;;;;;;-143.85;100.00;70650.75;5096639;28;20027;-82
2021/12/26 06:18:42;;;;;;;2.53;2.35;;;;;;;-143.85;100.00;70650.75;5097210;28;20047;-81
2021/12/26 06:21:07;;;;;;;1.48;1.40;;;;;;;-143.85;100.00;70650.75;5096144;28;20032;-80
2021/12/26 06:23:33;;;;;;;2.20;2.10;;;;;;;-143.85;100.00;70650.75;5096036;28;20065;-80
2021/12/26 06:25:58;;;;;;;3.45;2.58;;;;;;;-143.85;100.00;70650.75;5096406;28;20027;-83
2021/12/26 06:28:24;;;;;;;2.05;1.98;;;;;;;-143.85;100.00;70650.75;5096050;28;20019;-81
2021/12/26 06:30:49;;;;;;;1.88;1.80;;;;;;;-143.85;100.00;70650.75;5095833;28;20030;-80
2021/12/26 06:33:15;;;;;;;3.13;2.92;;;;;;;-143.85;100.00;70650.75;5114378;28;20031;-81
2021/12/26 06:35:40;;;;;;;2.55;2.45;;;;;;;-143.85;100.00;70650.75;5095749;28;20027;-80
2021/12/26 06:38:05;;;;;;;2.67;2.47;;;;;;;-143.85;100.00;70650.75;5075748;28;20058;-80
2021/12/26 06:40:31;;;;;;;1.27;1.27;;;;;;;-143.85;100.00;70650.75;5092565;28;20188;-84
2021/12/26 06:42:56;;;;;;;1.00;0.73;;;;;;;-143.85;100.00;70650.75;5092798;28;20466;-83
2021/12/26 06:45:22;;;;;;;0.40;0.40;;;;;;;-143.85;100.00;70650.75;5075037;28;20500;-81
2021/12/26 06:47:51;;;;;;;1.38;1.38;;;;;;;-143.85;100.00;70650.75;5093663;28;20062;-81
2021/12/26 06:50:19;;;;;;;0.43;0.43;;;;;;;-143.85;100.00;70650.75;5075548;28;20101;-83
2021/12/26 06:52:44;;;;;;;0.30;0.30;;;;;;;-143.85;100.00;70650.75;5079232;28;20048;-81
2021/12/26 06:55:13;;;;;;;2.03;1.23;;;;;;;-143.85;100.00;70650.75;5091071;28;20036;-81
2021/12/26 06:57:40;;;;;;;1.60;1.50;;;;;;;-143.85;100.00;70650.75;5075729;28;20472;-81
2021/12/26 07:00:08;;;;;;;0.75;0.75;;;;;;;-143.85;100.00;70650.75;5107525;28;20090;-81
2021/12/26 07:02:50;;;;;;;1.13;1.13;;;;;;;-143.85;100.00;70650.75;5092203;28;20032;-81
2021/12/26 07:05:16;;;;;;;1.30;1.20;;;;;;;-143.85;100.00;70650.75;5059614;28;20058;-82
2021/12/26 07:07:42;;;;;;;1.83;1.73;;;;;;;-143.85;100.00;70650.75;5092183;28;20472;-81
2021/12/26 07:10:09;;;;;;;4.10;3.08;;;;;;;-143.85;100.00;70650.75;5092257;28;20024;-81
2021/12/26 07:12:35;;;;;;;3.60;3.15;;;;;;;-143.85;100.00;70650.75;5092206;28;20064;-81
2021/12/26 07:15:00;;;;;;;7.97;3.83;;;;;;;-143.85;100.00;70650.75;5074945;28;20149;-81
2021/12/26 07:17:26;;;;;;;5.35;4.97;;;;;;;-143.85;100.00;70650.75;5076622;28;20054;-82
2021/12/26 07:19:52;;;;;;;5.75;5.30;;;;;;;-143.85;100.00;70650.75;5095409;28;20030;-81
2021/12/26 07:22:18;;;;;;;7.57;6.95;;;;;;;-143.85;100.00;70650.75;5095706;28;20038;-83
2021/12/26 07:24:46;;;;;;;5.68;5.15;;;;;;;-143.85;100.00;70650.75;5078354;28;20624;-80
2021/12/26 07:27:12;;;;;;;4.68;4.28;;;;;;;-143.85;100.00;70650.75;5074708;28;20503;-80
2021/12/26 07:29:38;;;;;;;5.07;4.68;;;;;;;-143.85;100.00;70650.75;5092678;28;20027;-80
2021/12/26 07:32:04;;;;;;;4.57;3.78;;;;;;;-143.85;100.00;70650.75;5080561;28;20032;-81
2021/12/26 07:34:29;;;;;;;6.40;4.78;;;;;;;-143.85;100.00;70650.75;5054639;28;20028;-77
2021/12/26 07:36:55;;;;;;;3.67;3.40;;;;;;;-143.85;100.00;70650.75;5054302;28;20059;-76
2021/12/26 07:39:20;;;;;;;5.03;4.72;;;;;;;-143.85;100.00;70650.75;5054577;28;20024;-77
2021/12/26 07:41:46;;;;;;;9.82;8.75;;;;;;;-143.85;100.00;70650.75;5092428;28;20066;-76
2021/12/26 07:44:11;;;;;;;6.40;5.97;;;;;;;-143.85;100.00;70650.75;5094732;28;20122;-78
2021/12/26 07:46:37;;;;;;;6.88;6.25;;;;;;;-143.85;100.00;70650.75;5112821;28;20030;-75
2021/12/26 07:49:03;;;;;;;5.88;5.47;;;;;;;-143.85;100.00;70650.75;5094603;28;20026;-79
2021/12/26 07:51:29;;;;;;;3.53;3.33;;;;;;;-143.85;100.00;70650.75;5095773;28;20027;-81
2021/12/26 07:53:59;;;;;;;7.28;3.88;;;;;;;-143.85;100.00;70650.75;5095987;28;20028;-78
2021/12/26 07:56:25;;;;;;;1.67;1.58;;;;;;;-143.85;100.00;70650.75;5096435;28;20059;-80
2021/12/26 07:58:50;;;;;;;2.05;1.88;;;;;;;-143.85;100.00;70650.75;5095944;28;20445;-77
2021/12/26 08:01:16;;;;;;;2.75;2.65;;;;;;;-143.85;100.00;70650.75;5096756;28;20080;-81
2021/12/26 08:03:41;;;;;;;1.13;1.13;;;;;;;-143.85;100.00;70650.75;5096599;28;20032;-78
2021/12/26 08:06:08;;;;;;;2.05;1.85;;;;;;;-143.85;100.00;70650.75;5098807;28;20028;-78
2021/12/26 08:08:35;;;;;;;0.55;0.55;;;;;;;-143.85;100.00;70650.75;5098555;28;20031;-77
2021/12/26 08:11:01;;;;;;;1.38;1.23;;;;;;;-143.85;100.00;70650.75;5098893;28;20039;-79
2021/12/26 08:13:27;;;;;;;1.90;1.55;;;;;;;-143.85;100.00;70650.75;5098608;28;20028;-78
2021/12/26 08:15:52;;;;;;;0.77;0.77;;;;;;;-143.85;100.00;70650.75;5098433;28;20047;-81
2021/12/26 08:18:18;;;;;;;0.70;0.70;;;;;;;-143.85;100.00;70650.75;5098477;28;20476;-79
2021/12/26 08:20:43;;;;;;;1.95;1.85;;;;;;;-143.85;100.00;70650.75;5098644;28;20032;-78
2021/12/26 08:23:09;;;;;;;1.45;0.50;;;;;;;-143.85;100.00;70650.75;5097831;28;20487;-79
2021/12/26 08:25:34;;;;;;;0.65;0.65;;;;;;;-143.85;100.00;70650.75;5098405;28;20483;-79
2021/12/26 08:28:00;;;;;;;2.45;2.25;;;;;;;-143.85;100.00;70650.75;5098146;28;20498;-78
2021/12/26 08:30:27;;;;;;;4.65;2.15;;;;;;;-143.85;100.00;70650.75;5098053;28;20399;-80
2021/12/26 08:32:54;;;;;;;0.40;0.40;;;;;;;-143.85;100.00;70650.75;5116222;28;20016;-79
2021/12/26 08:35:20;;;;;;;2.72;2.47;;;;;;;-143.85;100.00;70650.75;5097761;28;20265;-80
2021/12/26 08:37:47;;;;;;;1.17;1.17;;;;;;;-143.85;100.00;70650.75;5098103;28;20026;-80
2021/12/26 08:40:14;;;;;;;3.55;2.53;;;;;;;-143.85;100.00;70650.75;5098323;28;20030;-80
2021/12/26 08:42:39;;;;;;;5.05;4.18;;;;;;;-143.85;100.00;70650.75;5097977;28;20471;-81
2021/12/26 08:45:05;;;;;;;3.72;3.13;;;;;;;-143.85;100.00;70650.75;5097699;28;20024;-79
2021/12/26 08:47:31;;;;;;;2.03;1.92;;;;;;;-143.85;100.00;70650.75;5097469;28;20398;-81
2021/12/26 08:49:56;;;;;;;1.42;1.05;;;;;;;-143.85;100.00;70650.75;5093306;28;20024;-76
2021/12/26 08:52:22;;;;;;;1.60;1.60;;;;;;;-143.85;100.00;70650.75;5073772;28;20032;-80
2021/12/26 08:54:48;;;;;;;1.60;1.50;;;;;;;-143.85;100.00;70650.75;5056731;28;20028;-81
2021/12/26 08:57:15;;;;;;;0.93;0.93;;;;;;;-143.85;100.00;70650.75;5056925;28;20123;-81
2021/12/26 08:59:41;;;;;;;1.02;0.88;;;;;;;-143.85;100.00;70650.75;5073738;28;20443;-81
2021/12/26 09:02:07;;;;;;;2.88;2.55;;;;;;;-143.85;100.00;70650.75;5056494;28;20048;-80
2021/12/26 09:04:34;;;;;;;1.88;1.77;;;;;;;-143.85;100.00;70650.75;5073222;28;20126;-80
2021/12/26 09:07:00;;;;;;;0.87;0.83;;;;;;;-143.85;100.00;70650.75;5056915;28;20039;-79
2021/12/26 09:09:27;;;;;;;7.65;5.80;;;;;;;-143.85;100.00;70650.75;5078572;28;20025;-80
2021/12/26 09:11:53;;;;;;;4.38;4.07;;;;;;;-143.85;100.00;70650.75;5077408;28;20024;-80
2021/12/26 09:14:18;;;;;;;5.50;4.25;;;;;;;-143.85;100.00;70650.75;5075782;28;20036;-81
2021/12/26 09:16:44;;;;;;;5.38;4.95;;;;;;;-143.85;100.00;70650.75;5075339;28;20519;-81
2021/12/26 09:19:09;;;;;;;5.35;4.95;;;;;;;-143.85;100.00;70650.75;5074626;28;20027;-81
2021/12/26 09:21:35;;;;;;;2.20;2.15;;;;;;;-143.85;100.00;70650.75;5057918;28;20488;-81
2021/12/26 09:24:03;;;;;;;3.53;3.28;;;;;;;-143.85;100.00;70650.75;5056254;28;20032;-80
2021/12/26 09:26:29;;;;;;;;;;;;;;;-143.85;100.00;70650.75;5056651;28;20032;-82
2021/12/26 09:28:54;;;;;;;4.07;3.72;;;;;;;-143.85;100.00;70650.75;5056162;28;19909;-78
2021/12/26 09:31:22;;;;;;;4.97;4.45;;;;;;;-143.85;100.00;70650.75;5056618;28;20035;-82
2021/12/26 09:33:47;;;;;;;5.40;4.60;;;;;;;-143.85;100.00;70650.75;5068718;28;20130;-81
2021/12/26 09:36:13;;;;;;;6.60;5.97;;;;;;;-143.85;100.00;70650.75;5076296;28;20188;-79
2021/12/26 09:38:38;;;;;;;6.78;6.28;;;;;;;-143.85;100.00;70650.75;5075170;28;20464;-76
2021/12/26 09:41:05;;;;;;;6.72;6.13;;;;;;;-143.85;100.00;70650.75;5076097;28;20027;-81
2021/12/26 09:43:30;;;;;;;7.13;5.43;;;;;;;-143.85;100.00;70650.75;5076012;28;20063;-80
2021/12/26 09:45:56;;;;;;;12.95;8.45;;;;;;;-143.85;100.00;70650.75;5076337;28;20060;-78
2021/12/26 09:48:22;;;;;;;7.85;6.47;;;;;;;-143.85;100.00;70650.75;5075988;28;20081;-79
2021/12/26 09:50:47;;;;;;;6.38;5.78;;;;;;;-143.85;100.00;70650.75;5076112;28;20123;-77
2021/12/26 09:53:13;;;;;;;4.72;3.67;;;;;;;-143.85;100.00;70650.75;5075980;28;20475;-78
2021/12/26 09:55:39;;;;;;;4.82;3.80;;;;;;;-143.85;100.00;70650.75;5076323;28;20024;-78
2021/12/26 09:58:05;;;;;;;2.90;2.67;;;;;;;-143.85;100.00;70650.75;5076422;28;20537;-78
2021/12/26 10:00:41;;;;;;;4.72;4.15;;;;;;;-143.85;100.00;70650.75;5083852;28;20059;-78
2021/12/26 10:03:18;;;;;;;3.83;3.13;;;;;;;-143.85;100.00;70650.75;5076135;28;20111;-80
2021/12/26 10:06:13;;;;;;;2.92;2.67;;;;;;;-143.85;100.00;70650.75;5067259;28;20155;-77
2021/12/26 10:08:54;;;;;;;5.53;2.83;;;;;;;-143.85;100.00;70650.75;5059502;28;20020;-77
2021/12/26 10:11:22;;;;;;;3.50;3.20;;;;;;;-143.85;100.00;70650.75;5076115;28;20039;-80
2021/12/26 10:14:03;;;;;;;3.13;2.22;;;;;;;-143.85;100.00;70650.75;5075477;28;20457;-79
2021/12/26 10:16:34;;;;;;;3.90;3.67;;;;;;;-143.85;100.00;70650.75;5075454;28;20028;-78
2021/12/26 10:19:02;;;;;;;5.97;5.35;;;;;;;-143.85;100.00;70650.75;5055624;28;20032;-81
2021/12/26 10:21:27;;;;;;;3.57;3.27;;;;;;;-143.85;100.00;70650.75;5072382;28;20024;-78
2021/12/26 10:23:55;;;;;;;5.88;5.38;;;;;;;-143.85;100.00;70650.75;5075249;28;20031;-78
2021/12/26 10:26:22;;;;;;;;;;;;;;;-143.85;100.00;70650.75;5079350;28;20036;-79
2021/12/26 10:29:23;;;;;;;6.45;4.38;;;;;;;-143.85;100.00;70650.75;5091775;28;19908;-80
2021/12/26 10:31:59;;;;;;;2.22;1.65;;;;;;;-143.85;100.00;70650.75;5013813;28;20026;-77
2021/12/26 10:34:46;;;;;;;5.18;4.65;;;;;;;-143.85;100.00;70650.75;5081014;28;20047;-78
2021/12/26 10:37:24;;;;;;;13.75;2.92;;;;;;;-143.85;100.00;70650.75;5092033;28;20057;-78
2021/12/26 10:39:53;;;;;;;3.53;3.25;;;;;;;-143.85;100.00;70650.75;5081391;28;20096;-80
2021/12/26 10:42:30;;;;;;;4.75;4.32;;;;;;;-143.85;100.00;70650.75;5074884;28;20400;-78
2021/12/26 10:45:08;;;;;;;4.63;4.38;;;;;;;-143.85;100.00;70650.75;5074665;28;20028;-78
2021/12/26 10:47:35;;;;;;;10.55;4.03;;;;;;;-143.85;100.00;70650.75;5058111;28;20035;-80
2021/12/26 10:50:06;;;;;;;8.45;7.20;;;;;;;-143.85;100.00;70650.75;5060470;28;20024;-81
2021/12/26 10:52:38;;;;;;;4.22;3.90;;;;;;;-143.85;100.00;70650.75;5074847;28;20497;-79
2021/12/26 10:55:07;;;;;;;3.42;2.40;;;;;;;-143.85;100.00;70650.75;5074925;28;20067;-79
2021/12/26 10:57:41;;;;;;;4.38;3.33;;;;;;;-143.85;100.00;70650.75;5090396;28;20032;-77
2021/12/26 11:00:20;;;;;;;3.78;3.45;;;;;;;-143.85;100.00;70650.75;5091567;28;20415;-76
2021/12/26 11:03:25;;;;;;;4.55;4.18;;;;;;;-143.85;100.00;70650.75;5091497;28;20085;-79
2021/12/26 11:05:54;;;;;;;2.63;2.47;;;;;;;-143.85;100.00;70650.75;5061953;28;20052;-77
2021/12/26 11:08:33;;;;;;;3.38;3.17;;;;;;;-143.85;100.00;70650.75;5076190;28;20034;-77
2021/12/26 11:11:07;;;;;;;4.55;2.97;;;;;;;-143.85;100.00;70650.75;5064741;28;20093;-77
2021/12/26 11:13:33;;;;;;;3.20;2.75;;;;;;;-143.85;100.00;70650.75;5075094;28;20476;-78
2021/12/26 11:16:04;;;;;;;9.50;4.70;;;;;;;-143.85;100.00;70650.75;5074724;28;20027;-77
2021/12/26 11:18:29;;;;;;;4.10;3.78;;;;;;;-143.85;100.00;70650.75;5074864;28;20032;-78